Kokomo — WDB6285 — position and weather

sailwx.info

Track history (hours):
 
Tides and Currents Weather Stations Pressure Air Temp Water Temp Dewpoint Dewpoint Depression Visibility Wind Speed Wind Dir Waves Ship Positions

Kokomo

Owner: benson mr, marvin l, del mar, CA. More information available from US FCC via Universal Licensing System.

Last reported at 2018-Jun-05 03:11 UTC. Time now 2018-Jun-21 11:51 UTC.
Position N 29°51' W 091°55'.
Warning: this ship's position is 16 days out of date.

Length 28 m; draft 3.4 m.

Type: . MMSI: 366921420.

Date/timePositionNaut miles runAvg speedWind from/ knotsBaromVisibWave heightAir tempDewpointWater temp
2018-Jun-05 03:11N 29°51' W 091°55'1 6.6
2018-Jun-05 02:59N 29°51' W 091°56'3 6.2
2018-Jun-05 02:30N 29°50' W 091°59'3 6.5
2018-Jun-05 02:00N 29°49' W 092°03'3 6.3
2018-Jun-05 01:30N 29°48' W 092°06'3 6.1
2018-Jun-05 01:00N 29°47' W 092°10'2 4.3
2018-Jun-05 00:30N 29°47' W 092°12'1 1.3
2018-Jun-05 00:00N 29°47' W 092°13'1 1.2
2018-Jun-04 23:30N 29°48' W 092°14'0 0.0
2018-Jun-04 23:00N 29°48' W 092°14'1 1.6
2018-Jun-04 22:30N 29°48' W 092°14'0 0.8
2018-Jun-04 22:00N 29°48' W 092°15'0 0.0
2018-Jun-04 21:30N 29°48' W 092°15'0 0.2
2018-Jun-04 21:00N 29°48' W 092°15'1 1.3
2018-Jun-04 20:30N 29°48' W 092°16'0 0.0
2018-Jun-04 20:00N 29°48' W 092°16'0 0.0
2018-Jun-04 19:30N 29°48' W 092°16'0 0.0
2018-Jun-04 19:00N 29°48' W 092°16'0 0.0
2018-Jun-04 18:30N 29°48' W 092°16'1 1.9
2018-Jun-04 18:00N 29°49' W 092°17'0 0.5
2018-Jun-04 17:30N 29°49' W 092°17'0 0.0
2018-Jun-04 17:00N 29°49' W 092°17'0 0.0
2018-Jun-04 16:30N 29°49' W 092°17'0 0.0
2018-Jun-04 16:00N 29°49' W 092°17'0 0.0
2018-Jun-04 15:30N 29°49' W 092°17'0 0.0
2018-Jun-04 15:00N 29°49' W 092°17'1 2.9
2018-Jun-04 14:30N 29°50' W 092°18'3 5.5
2018-Jun-04 13:58N 29°51' W 092°21'3 4.5
2018-Jun-04 13:19N 29°53' W 092°23'2 6.2
2018-Jun-04 12:57N 29°53' W 092°26'3 6.1
2018-Jun-04 12:30N 29°54' W 092°29'31 5.9
2018-Jun-04 07:16N 29°56' W 093°05'2 6.0
2018-Jun-04 07:00N 29°56' W 093°07'3 5.7
2018-Jun-04 06:30N 29°56' W 093°10'3 6.2
2018-Jun-04 06:00N 29°59' W 093°12'1 2.5
2018-Jun-04 05:30N 29°60' W 093°13'3 5.3
2018-Jun-04 05:00N 30°02' W 093°15'2 4.6
2018-Jun-04 04:30N 30°04' W 093°16'2 3.5
2018-Jun-04 04:00N 30°05' W 093°18'0 0.9
2018-Jun-04 03:30N 30°06' W 093°18'0 0.9
2018-Jun-04 03:00N 30°06' W 093°18'0 0.0
2018-Jun-04 02:30N 30°06' W 093°18'1 1.5
2018-Jun-04 02:00N 30°06' W 093°19'0 0.2
2018-Jun-04 01:30N 30°06' W 093°19'0 0.0
2018-Jun-04 01:00N 30°06' W 093°19'0 0.0
2018-Jun-04 00:30N 30°06' W 093°19'0 0.0
2018-Jun-04 00:00N 30°06' W 093°19'0 0.0
2018-Jun-03 23:30N 30°06' W 093°19'0 0.0
2018-Jun-03 23:00N 30°06' W 093°19'0 0.0
2018-Jun-03 22:30N 30°06' W 093°19'0 0.0
2018-Jun-03 22:00N 30°06' W 093°19'0 0.0
2018-Jun-03 21:30N 30°06' W 093°19'0 0.3
2018-Jun-03 21:00N 30°06' W 093°19'0 0.1
2018-Jun-03 20:30N 30°06' W 093°19'2 3.2
2018-Jun-03 20:00N 30°05' W 093°20'3 5.1
2018-Jun-03 19:30N 30°04' W 093°23'3 6.5
2018-Jun-03 19:00N 30°04' W 093°26'3 5.4
2018-Jun-03 18:30N 30°04' W 093°30'3 5.3
2018-Jun-03 18:00N 30°04' W 093°33'3 6.4
2018-Jun-03 17:29N 30°04' W 093°37'3 6.4
2018-Jun-03 17:00N 30°04' W 093°40'3 5.1
2018-Jun-03 16:30N 30°03' W 093°43'1 1.2
2018-Jun-03 16:00N 30°03' W 093°44'4 7.8
2018-Jun-03 15:30N 29°60' W 093°46'4 8.2
2018-Jun-03 15:00N 29°58' W 093°51'2 4.8
2018-Jun-03 14:30N 29°59' W 093°53'3 7.0
2018-Jun-03 14:00N 30°00' W 093°57'2 3.5
2018-Jun-03 13:30N 30°01' W 093°59'0 0.1
2018-Jun-03 13:00N 30°01' W 093°59'0 0.0
2018-Jun-03 12:30N 30°01' W 093°59'0 0.0
2018-Jun-03 12:00N 30°01' W 093°59'0 0.0
2018-Jun-03 11:30N 30°01' W 093°59'0 0.0
2018-Jun-03 11:00N 30°01' W 093°59'0 0.0
2018-Jun-03 10:30N 30°01' W 093°59'0 0.0
2018-Jun-03 10:00N 30°01' W 093°59'0 0.0
2018-Jun-03 09:30N 30°01' W 093°59'0 0.0
2018-Jun-03 09:00N 30°01' W 093°59'0 0.1
2018-Jun-03 08:30N 30°01' W 093°59'0 0.0
2018-Jun-03 08:00N 30°01' W 093°59'0 0.0
2018-Jun-03 07:30N 30°01' W 093°59'0 0.0
2018-Jun-03 07:00N 30°01' W 093°59'0 0.0
2018-Jun-03 06:30N 30°01' W 093°59'0 0.0
2018-Jun-03 06:00N 30°01' W 093°59'0 0.0
2018-Jun-03 05:30N 30°01' W 093°59'0 0.0
2018-Jun-03 05:00N 30°01' W 093°59'0 0.0
2018-Jun-03 04:30N 30°01' W 093°59'0 0.0
2018-Jun-03 04:00N 30°01' W 093°59'0 0.0
2018-Jun-03 03:30N 30°01' W 093°59'0 0.0
2018-Jun-03 03:00N 30°01' W 093°59'0 0.0
2018-Jun-03 02:30N 30°01' W 093°59'0 0.0
2018-Jun-03 02:00N 30°01' W 093°59'0 0.0
2018-Jun-03 01:30N 30°01' W 093°59'0 0.0
2018-Jun-03 01:00N 30°01' W 093°59'0 0.0
2018-Jun-03 00:30N 30°01' W 093°59'0 0.0
2018-Jun-03 00:00N 30°01' W 093°59'0 0.0
2018-Jun-02 23:31N 30°01' W 093°59'0 0.0
2018-Jun-02 23:00N 30°01' W 093°59'0 0.0
2018-Jun-02 22:30N 30°01' W 093°59'0 0.0
2018-Jun-02 22:00N 30°01' W 093°59'0 0.0
2018-Jun-02 21:30N 30°01' W 093°59'0 0.0
2018-Jun-02 21:00N 30°01' W 093°59'0 0.0
2018-Jun-02 20:30N 30°01' W 093°59'0 0.0
2018-Jun-02 20:00N 30°01' W 093°59'0 0.0
2018-Jun-02 19:30N 30°01' W 093°59'0 0.0
2018-Jun-02 19:00N 30°01' W 093°59'0 0.0
2018-Jun-02 18:30N 30°01' W 093°59'0 0.0
2018-Jun-02 18:00N 30°01' W 093°59'0 0.0
2018-Jun-02 17:30N 30°01' W 093°59'0 0.0
2018-Jun-02 17:00N 30°01' W 093°59'0 0.0
2018-Jun-02 16:30N 30°01' W 093°59'0 0.2
2018-Jun-02 16:00N 30°01' W 093°59'0 0.1
2018-Jun-02 15:30N 30°01' W 093°59'1 1.6
2018-Jun-02 15:00N 30°01' W 093°58'2 4.6
2018-Jun-02 14:30N 29°60' W 093°56'3 5.6
2018-Jun-02 14:00N 29°59' W 093°53'2 4.8
2018-Jun-02 13:30N 29°59' W 093°50'4 7.3
2018-Jun-02 13:00N 30°00' W 093°46'3 6.8
2018-Jun-02 12:30N 30°03' W 093°44'3 5.3
2018-Jun-02 12:00N 30°04' W 093°41'3 5.4
2018-Jun-02 11:30N 30°04' W 093°38'2 4.6
2018-Jun-02 11:00N 30°04' W 093°35'2 4.8
2018-Jun-02 10:30N 30°04' W 093°32'2 4.9
2018-Jun-02 10:00N 30°04' W 093°30'2 4.9
2018-Jun-02 09:30N 30°04' W 093°27'2 4.9
2018-Jun-02 09:00N 30°04' W 093°24'2 4.1
2018-Jun-02 08:30N 30°04' W 093°22'2 3.2
2018-Jun-02 08:00N 30°05' W 093°20'2 4.0
2018-Jun-02 07:30N 30°06' W 093°19'1 2.5
2018-Jun-02 07:00N 30°05' W 093°18'1 2.5
2018-Jun-02 06:30N 30°04' W 093°16'1 1.9
2018-Jun-02 06:00N 30°04' W 093°16'0 0.0
2018-Jun-02 05:30N 30°04' W 093°16'0 0.0
2018-Jun-02 05:00N 30°04' W 093°16'0 0.0
2018-Jun-02 04:30N 30°04' W 093°16'0 0.0
2018-Jun-02 04:00N 30°04' W 093°16'0 0.0
2018-Jun-02 03:30N 30°04' W 093°16'0 0.0
2018-Jun-02 03:00N 30°04' W 093°16'0 0.0
2018-Jun-02 02:30N 30°04' W 093°16'0 0.0
2018-Jun-02 02:00N 30°04' W 093°16'0 0.0
2018-Jun-02 01:30N 30°04' W 093°16'0 0.0
2018-Jun-02 01:00N 30°04' W 093°16'0 0.0
2018-Jun-02 00:30N 30°04' W 093°16'0 0.1
2018-Jun-02 00:00N 30°04' W 093°16'0 0.0
2018-Jun-01 23:30N 30°04' W 093°16'0 0.0
2018-Jun-01 23:00N 30°04' W 093°16'1 2.0
2018-Jun-01 22:30N 30°03' W 093°16'1 1.9
2018-Jun-01 22:00N 30°02' W 093°15'0 0.0
2018-Jun-01 21:30N 30°02' W 093°15'0 0.0
2018-Jun-01 21:00N 30°02' W 093°15'1 2.4
2018-Jun-01 20:30N 30°01' W 093°14'0 0.8
2018-Jun-01 20:00N 30°01' W 093°14'0 0.0
2018-Jun-01 19:30N 30°01' W 093°14'0 0.0
2018-Jun-01 19:00N 30°01' W 093°14'2 3.1
2018-Jun-01 18:30N 29°59' W 093°13'2 4.8
2018-Jun-01 18:00N 29°58' W 093°11'2 4.5
2018-Jun-01 17:30N 29°56' W 093°09'2 4.7
2018-Jun-01 16:59N 29°56' W 093°06'1 1.4
2018-Jun-01 16:30N 29°56' W 093°06'0 0.5
2018-Jun-01 16:00N 29°56' W 093°05'1 3.0
2018-Jun-01 15:30N 29°56' W 093°04'34 4.6
2018-Jun-01 08:08N 29°53' W 092°24'2 4.7
2018-Jun-01 07:47N 29°52' W 092°23'2 4.5
2018-Jun-01 07:26N 29°51' W 092°22'2 4.7
2018-Jun-01 07:00N 29°50' W 092°19'2 4.5
2018-Jun-01 06:30N 29°49' W 092°17'3 5.2
2018-Jun-01 06:00N 29°48' W 092°15'2 4.4
2018-Jun-01 05:30N 29°47' W 092°12'1 1.4
2018-Jun-01 05:00N 29°47' W 092°12'1 1.6
2018-Jun-01 04:30N 29°47' W 092°11'0 0.1
2018-Jun-01 04:00N 29°47' W 092°11'0 0.0
2018-Jun-01 03:30N 29°47' W 092°11'0 0.0
2018-Jun-01 03:00N 29°47' W 092°11'0 0.0
2018-Jun-01 02:30N 29°47' W 092°11'0 0.0
2018-Jun-01 02:00N 29°47' W 092°11'1 2.7
2018-Jun-01 01:30N 29°47' W 092°09'3 5.5
2018-Jun-01 01:00N 29°48' W 092°06'3 5.7
2018-Jun-01 00:30N 29°49' W 092°03'3 5.7
2018-Jun-01 00:00N 29°50' W 092°00'3 5.7
2018-May-31 23:27N 29°51' W 091°56'  
Track history (hours):
 
Tides and Currents Weather Stations Pressure Air Temp Water Temp Dewpoint Dewpoint Depression Visibility Wind Speed Wind Dir Waves Ship Positions

Kokomo

Owner: benson mr, marvin l, del mar, CA. More information available from US FCC via Universal Licensing System.

Last reported at 2018-Jun-05 03:11 UTC. Time now 2018-Jun-21 11:51 UTC.
Position N 29°51' W 091°55'.
Warning: this ship's position is 16 days out of date.

Length 28 m; draft 3.4 m.

Type: . MMSI: 366921420.

Date/timePositionNaut miles runAvg speedWind from/ knotsBaromVisibWave heightAir tempDewpointWater temp
2018-Jun-05 03:11N 29°51' W 091°55'1 6.6
2018-Jun-05 02:59N 29°51' W 091°56'3 6.2
2018-Jun-05 02:30N 29°50' W 091°59'3 6.5
2018-Jun-05 02:00N 29°49' W 092°03'3 6.3
2018-Jun-05 01:30N 29°48' W 092°06'3 6.1
2018-Jun-05 01:00N 29°47' W 092°10'2 4.3
2018-Jun-05 00:30N 29°47' W 092°12'1 1.3
2018-Jun-05 00:00N 29°47' W 092°13'1 1.2
2018-Jun-04 23:30N 29°48' W 092°14'0 0.0
2018-Jun-04 23:00N 29°48' W 092°14'1 1.6
2018-Jun-04 22:30N 29°48' W 092°14'0 0.8
2018-Jun-04 22:00N 29°48' W 092°15'0 0.0
2018-Jun-04 21:30N 29°48' W 092°15'0 0.2
2018-Jun-04 21:00N 29°48' W 092°15'1 1.3
2018-Jun-04 20:30N 29°48' W 092°16'0 0.0
2018-Jun-04 20:00N 29°48' W 092°16'0 0.0
2018-Jun-04 19:30N 29°48' W 092°16'0 0.0
2018-Jun-04 19:00N 29°48' W 092°16'0 0.0
2018-Jun-04 18:30N 29°48' W 092°16'1 1.9
2018-Jun-04 18:00N 29°49' W 092°17'0 0.5
2018-Jun-04 17:30N 29°49' W 092°17'0 0.0
2018-Jun-04 17:00N 29°49' W 092°17'0 0.0
2018-Jun-04 16:30N 29°49' W 092°17'0 0.0
2018-Jun-04 16:00N 29°49' W 092°17'0 0.0
2018-Jun-04 15:30N 29°49' W 092°17'0 0.0
2018-Jun-04 15:00N 29°49' W 092°17'1 2.9
2018-Jun-04 14:30N 29°50' W 092°18'3 5.5
2018-Jun-04 13:58N 29°51' W 092°21'3 4.5
2018-Jun-04 13:19N 29°53' W 092°23'2 6.2
2018-Jun-04 12:57N 29°53' W 092°26'3 6.1
2018-Jun-04 12:30N 29°54' W 092°29'31 5.9
2018-Jun-04 07:16N 29°56' W 093°05'2 6.0
2018-Jun-04 07:00N 29°56' W 093°07'3 5.7
2018-Jun-04 06:30N 29°56' W 093°10'3 6.2
2018-Jun-04 06:00N 29°59' W 093°12'1 2.5
2018-Jun-04 05:30N 29°60' W 093°13'3 5.3
2018-Jun-04 05:00N 30°02' W 093°15'2 4.6
2018-Jun-04 04:30N 30°04' W 093°16'2 3.5
2018-Jun-04 04:00N 30°05' W 093°18'0 0.9
2018-Jun-04 03:30N 30°06' W 093°18'0 0.9
2018-Jun-04 03:00N 30°06' W 093°18'0 0.0
2018-Jun-04 02:30N 30°06' W 093°18'1 1.5
2018-Jun-04 02:00N 30°06' W 093°19'0 0.2
2018-Jun-04 01:30N 30°06' W 093°19'0 0.0
2018-Jun-04 01:00N 30°06' W 093°19'0 0.0
2018-Jun-04 00:30N 30°06' W 093°19'0 0.0
2018-Jun-04 00:00N 30°06' W 093°19'0 0.0
2018-Jun-03 23:30N 30°06' W 093°19'0 0.0
2018-Jun-03 23:00N 30°06' W 093°19'0 0.0
2018-Jun-03 22:30N 30°06' W 093°19'0 0.0
2018-Jun-03 22:00N 30°06' W 093°19'0 0.0
2018-Jun-03 21:30N 30°06' W 093°19'0 0.3
2018-Jun-03 21:00N 30°06' W 093°19'0 0.1
2018-Jun-03 20:30N 30°06' W 093°19'2 3.2
2018-Jun-03 20:00N 30°05' W 093°20'3 5.1
2018-Jun-03 19:30N 30°04' W 093°23'3 6.5
2018-Jun-03 19:00N 30°04' W 093°26'3 5.4
2018-Jun-03 18:30N 30°04' W 093°30'3 5.3
2018-Jun-03 18:00N 30°04' W 093°33'3 6.4
2018-Jun-03 17:29N 30°04' W 093°37'3 6.4
2018-Jun-03 17:00N 30°04' W 093°40'3 5.1
2018-Jun-03 16:30N 30°03' W 093°43'1 1.2
2018-Jun-03 16:00N 30°03' W 093°44'4 7.8
2018-Jun-03 15:30N 29°60' W 093°46'4 8.2
2018-Jun-03 15:00N 29°58' W 093°51'2 4.8
2018-Jun-03 14:30N 29°59' W 093°53'3 7.0
2018-Jun-03 14:00N 30°00' W 093°57'2 3.5
2018-Jun-03 13:30N 30°01' W 093°59'0 0.1
2018-Jun-03 13:00N 30°01' W 093°59'0 0.0
2018-Jun-03 12:30N 30°01' W 093°59'0 0.0
2018-Jun-03 12:00N 30°01' W 093°59'0 0.0
2018-Jun-03 11:30N 30°01' W 093°59'0 0.0
2018-Jun-03 11:00N 30°01' W 093°59'0 0.0
2018-Jun-03 10:30N 30°01' W 093°59'0 0.0
2018-Jun-03 10:00N 30°01' W 093°59'0 0.0
2018-Jun-03 09:30N 30°01' W 093°59'0 0.0
2018-Jun-03 09:00N 30°01' W 093°59'0 0.1
2018-Jun-03 08:30N 30°01' W 093°59'0 0.0
2018-Jun-03 08:00N 30°01' W 093°59'0 0.0
2018-Jun-03 07:30N 30°01' W 093°59'0 0.0
2018-Jun-03 07:00N 30°01' W 093°59'0 0.0
2018-Jun-03 06:30N 30°01' W 093°59'0 0.0
2018-Jun-03 06:00N 30°01' W 093°59'0 0.0
2018-Jun-03 05:30N 30°01' W 093°59'0 0.0
2018-Jun-03 05:00N 30°01' W 093°59'0 0.0
2018-Jun-03 04:30N 30°01' W 093°59'0 0.0
2018-Jun-03 04:00N 30°01' W 093°59'0 0.0
2018-Jun-03 03:30N 30°01' W 093°59'0 0.0
2018-Jun-03 03:00N 30°01' W 093°59'0 0.0
2018-Jun-03 02:30N 30°01' W 093°59'0 0.0
2018-Jun-03 02:00N 30°01' W 093°59'0 0.0
2018-Jun-03 01:30N 30°01' W 093°59'0 0.0
2018-Jun-03 01:00N 30°01' W 093°59'0 0.0
2018-Jun-03 00:30N 30°01' W 093°59'0 0.0
2018-Jun-03 00:00N 30°01' W 093°59'0 0.0
2018-Jun-02 23:31N 30°01' W 093°59'0 0.0
2018-Jun-02 23:00N 30°01' W 093°59'0 0.0
2018-Jun-02 22:30N 30°01' W 093°59'0 0.0
2018-Jun-02 22:00N 30°01' W 093°59'0 0.0
2018-Jun-02 21:30N 30°01' W 093°59'0 0.0
2018-Jun-02 21:00N 30°01' W 093°59'0 0.0
2018-Jun-02 20:30N 30°01' W 093°59'0 0.0
2018-Jun-02 20:00N 30°01' W 093°59'0 0.0
2018-Jun-02 19:30N 30°01' W 093°59'0 0.0
2018-Jun-02 19:00N 30°01' W 093°59'0 0.0
2018-Jun-02 18:30N 30°01' W 093°59'0 0.0
2018-Jun-02 18:00N 30°01' W 093°59'0 0.0
2018-Jun-02 17:30N 30°01' W 093°59'0 0.0
2018-Jun-02 17:00N 30°01' W 093°59'0 0.0
2018-Jun-02 16:30N 30°01' W 093°59'0 0.2
2018-Jun-02 16:00N 30°01' W 093°59'0 0.1
2018-Jun-02 15:30N 30°01' W 093°59'1 1.6
2018-Jun-02 15:00N 30°01' W 093°58'2 4.6
2018-Jun-02 14:30N 29°60' W 093°56'3 5.6
2018-Jun-02 14:00N 29°59' W 093°53'2 4.8
2018-Jun-02 13:30N 29°59' W 093°50'4 7.3
2018-Jun-02 13:00N 30°00' W 093°46'3 6.8
2018-Jun-02 12:30N 30°03' W 093°44'3 5.3
2018-Jun-02 12:00N 30°04' W 093°41'3 5.4
2018-Jun-02 11:30N 30°04' W 093°38'2 4.6
2018-Jun-02 11:00N 30°04' W 093°35'2 4.8
2018-Jun-02 10:30N 30°04' W 093°32'2 4.9
2018-Jun-02 10:00N 30°04' W 093°30'2 4.9
2018-Jun-02 09:30N 30°04' W 093°27'2 4.9
2018-Jun-02 09:00N 30°04' W 093°24'2 4.1
2018-Jun-02 08:30N 30°04' W 093°22'2 3.2
2018-Jun-02 08:00N 30°05' W 093°20'2 4.0
2018-Jun-02 07:30N 30°06' W 093°19'1 2.5
2018-Jun-02 07:00N 30°05' W 093°18'1 2.5
2018-Jun-02 06:30N 30°04' W 093°16'1 1.9
2018-Jun-02 06:00N 30°04' W 093°16'0 0.0
2018-Jun-02 05:30N 30°04' W 093°16'0 0.0
2018-Jun-02 05:00N 30°04' W 093°16'0 0.0
2018-Jun-02 04:30N 30°04' W 093°16'0 0.0
2018-Jun-02 04:00N 30°04' W 093°16'0 0.0
2018-Jun-02 03:30N 30°04' W 093°16'0 0.0
2018-Jun-02 03:00N 30°04' W 093°16'0 0.0
2018-Jun-02 02:30N 30°04' W 093°16'0 0.0
2018-Jun-02 02:00N 30°04' W 093°16'0 0.0
2018-Jun-02 01:30N 30°04' W 093°16'0 0.0
2018-Jun-02 01:00N 30°04' W 093°16'0 0.0
2018-Jun-02 00:30N 30°04' W 093°16'0 0.1
2018-Jun-02 00:00N 30°04' W 093°16'0 0.0
2018-Jun-01 23:30N 30°04' W 093°16'0 0.0
2018-Jun-01 23:00N 30°04' W 093°16'1 2.0
2018-Jun-01 22:30N 30°03' W 093°16'1 1.9
2018-Jun-01 22:00N 30°02' W 093°15'0 0.0
2018-Jun-01 21:30N 30°02' W 093°15'0 0.0
2018-Jun-01 21:00N 30°02' W 093°15'1 2.4
2018-Jun-01 20:30N 30°01' W 093°14'0 0.8
2018-Jun-01 20:00N 30°01' W 093°14'0 0.0
2018-Jun-01 19:30N 30°01' W 093°14'0 0.0
2018-Jun-01 19:00N 30°01' W 093°14'2 3.1
2018-Jun-01 18:30N 29°59' W 093°13'2 4.8
2018-Jun-01 18:00N 29°58' W 093°11'2 4.5
2018-Jun-01 17:30N 29°56' W 093°09'2 4.7
2018-Jun-01 16:59N 29°56' W 093°06'1 1.4
2018-Jun-01 16:30N 29°56' W 093°06'0 0.5
2018-Jun-01 16:00N 29°56' W 093°05'1 3.0
2018-Jun-01 15:30N 29°56' W 093°04'34 4.6
2018-Jun-01 08:08N 29°53' W 092°24'2 4.7
2018-Jun-01 07:47N 29°52' W 092°23'2 4.5
2018-Jun-01 07:26N 29°51' W 092°22'2 4.7
2018-Jun-01 07:00N 29°50' W 092°19'2 4.5
2018-Jun-01 06:30N 29°49' W 092°17'3 5.2
2018-Jun-01 06:00N 29°48' W 092°15'2 4.4
2018-Jun-01 05:30N 29°47' W 092°12'1 1.4
2018-Jun-01 05:00N 29°47' W 092°12'1 1.6
2018-Jun-01 04:30N 29°47' W 092°11'0 0.1
2018-Jun-01 04:00N 29°47' W 092°11'0 0.0
2018-Jun-01 03:30N 29°47' W 092°11'0 0.0
2018-Jun-01 03:00N 29°47' W 092°11'0 0.0
2018-Jun-01 02:30N 29°47' W 092°11'0 0.0
2018-Jun-01 02:00N 29°47' W 092°11'1 2.7
2018-Jun-01 01:30N 29°47' W 092°09'3 5.5
2018-Jun-01 01:00N 29°48' W 092°06'3 5.7
2018-Jun-01 00:30N 29°49' W 092°03'3 5.7
2018-Jun-01 00:00N 29°50' W 092°00'3 5.7
2018-May-31 23:27N 29°51' W 091°56'  

Dump ship's entire track history